Aviation Digital Data Service (ADDS)

Output produced by TAFs form (0039 UTC 23 February 2018)
found at http://www.aviationweather.gov/adds/tafs/
 
EGPD 230020Z AUTO 17007KT 9999 NCD 01/M01 Q1022 NOSIG
TAF EGPD 222256Z 2300/2324 19007KT 9999 FEW020 SCT040